Time;durP1;ratioP1;P1;durP2;ratioP2;P2;SDS_P1;SDS_P2;PMS_P1;PMS_P2;Temp;Humidity;BMP_temperature;BMP_pressure;BME280_temperature;BME280_humidity;BME280_pressure;Samples;Min_cycle;Max_cycle;Signal;HPM_P1;HPM_P2
2023/08/25 00:02:20;;;;;;;5.50;3.35;;;;;;;30.57;30.44;98239.78;5093267;28;20051;-45
2023/08/25 00:04:46;;;;;;;4.85;3.28;;;;;;;30.50;30.71;98239.56;5093628;28;20408;-45
2023/08/25 00:07:11;;;;;;;5.57;3.90;;;;;;;30.44;30.74;98222.75;5093251;28;20026;-45
2023/08/25 00:09:37;;;;;;;19.08;11.52;;;;;;;30.43;31.04;98223.91;5091956;28;20055;-45
2023/08/25 00:12:03;;;;;;;8.57;5.68;;;;;;;30.41;30.88;98226.16;5093186;28;20055;-45
2023/08/25 00:14:29;;;;;;;6.25;3.38;;;;;;;30.36;30.92;98220.97;5093176;28;20028;-45
2023/08/25 00:16:55;;;;;;;7.20;3.03;;;;;;;30.29;31.03;98215.34;5093147;28;20490;-45
2023/08/25 00:19:21;;;;;;;6.78;3.40;;;;;;;30.19;31.13;98228.22;5091773;28;20016;-45
2023/08/25 00:21:46;;;;;;;10.95;3.63;;;;;;;30.14;31.21;98204.06;5091681;28;20027;-45
2023/08/25 00:24:12;;;;;;;7.63;3.17;;;;;;;30.13;30.73;98212.56;5092965;28;20032;-45
2023/08/25 00:26:39;;;;;;;5.38;3.38;;;;;;;30.07;31.29;98222.81;5092932;28;20024;-45
2023/08/25 00:29:05;;;;;;;7.38;3.45;;;;;;;30.04;31.10;98202.66;5092784;28;20024;-45
2023/08/25 00:31:31;;;;;;;5.72;3.22;;;;;;;30.04;31.18;98218.06;5091342;28;20451;-45
2023/08/25 00:34:02;;;;;;;6.30;3.38;;;;;;;30.01;31.75;98214.16;5092723;28;20020;-45
2023/08/25 00:36:28;;;;;;;6.72;3.35;;;;;;;29.97;31.66;98215.97;5092785;28;20027;-45
2023/08/25 00:38:54;;;;;;;8.38;4.00;;;;;;;30.01;31.62;98197.91;5092551;28;20485;-45
2023/08/25 00:41:20;;;;;;;6.28;3.50;;;;;;;30.01;31.46;98206.03;5091305;28;20123;-45
2023/08/25 00:43:45;;;;;;;5.45;3.60;;;;;;;29.98;31.61;98192.38;5092875;28;20052;-45
2023/08/25 00:46:12;;;;;;;6.63;3.42;;;;;;;29.97;31.65;98191.59;5092561;28;20031;-45
2023/08/25 00:48:39;;;;;;;4.55;2.92;;;;;;;29.96;31.47;98197.34;5092546;28;20012;-44
2023/08/25 00:51:08;;;;;;;3.30;2.90;;;;;;;29.97;31.34;98197.00;5092440;28;20028;-45
2023/08/25 00:53:35;;;;;;;6.43;3.17;;;;;;;30.00;31.38;98214.47;5092423;28;20103;-45
2023/08/25 00:56:02;;;;;;;5.00;3.30;;;;;;;29.97;31.21;98201.66;5091082;28;20036;-45
2023/08/25 00:58:28;;;;;;;11.88;4.55;;;;;;;29.93;31.40;98193.41;5092343;28;20023;-45
2023/08/25 01:00:55;;;;;;;5.97;3.42;;;;;;;29.92;31.25;98218.88;5092417;28;20055;-45
2023/08/25 01:03:22;;;;;;;9.15;4.07;;;;;;;29.84;31.29;98196.25;5092400;28;20505;-45
2023/08/25 01:05:48;;;;;;;6.40;3.47;;;;;;;29.79;31.40;98201.09;5090988;28;20030;-45
2023/08/25 01:08:19;;;;;;;9.60;4.10;;;;;;;29.78;31.46;98202.22;5090882;28;20464;-45
2023/08/25 01:10:55;;;;;;;10.15;3.85;;;;;;;29.71;31.45;98196.56;5092116;28;20028;-45
2023/08/25 01:13:31;;;;;;;10.65;3.30;;;;;;;29.63;31.36;98188.22;5090807;28;20402;-45
2023/08/25 01:15:58;;;;;;;13.05;4.07;;;;;;;29.57;31.55;98186.88;5090830;28;20035;-45
2023/08/25 01:18:32;;;;;;;6.88;5.60;;;;;;;29.56;31.36;98190.72;5090764;28;20016;-45
2023/08/25 01:20:58;;;;;;;;;;;;;;;29.61;31.35;98182.34;5091179;28;20024;-45
2023/08/25 01:23:51;;;;;;;7.40;3.67;;;;;;;29.64;31.13;98191.72;5092060;28;20338;-45
2023/08/25 01:26:17;;;;;;;5.20;3.58;;;;;;;29.53;31.10;98199.50;5092088;28;20020;-45
2023/08/25 01:28:50;;;;;;;7.32;3.30;;;;;;;29.44;31.29;98194.19;5073865;28;20511;-45
2023/08/25 01:31:19;;;;;;;8.70;3.30;;;;;;;29.43;31.69;98187.19;5091928;28;20535;-46
2023/08/25 01:33:46;;;;;;;8.55;3.92;;;;;;;29.36;31.70;98197.81;5090631;28;20020;-45
2023/08/25 01:36:17;;;;;;;6.38;4.15;;;;;;;29.31;31.75;98192.59;5091867;28;20044;-45
2023/08/25 01:39:01;;;;;;;7.63;4.47;;;;;;;29.30;32.11;98191.03;5091914;28;20562;-45
2023/08/25 01:41:35;;;;;;;6.45;4.38;;;;;;;29.41;31.87;98186.75;5090586;28;20027;-45
2023/08/25 01:44:02;;;;;;;;;;;;;;;29.50;31.82;98191.25;5095037;28;20050;-45
2023/08/25 01:46:30;;;;;;;6.88;4.32;;;;;;;29.52;31.79;98189.00;5095991;28;19958;-45
2023/08/25 01:48:58;;;;;;;5.47;3.60;;;;;;;29.46;31.63;98189.25;5094723;28;20032;-45
2023/08/25 01:51:24;;;;;;;5.47;3.42;;;;;;;29.42;31.95;98192.97;5094653;28;20028;-45
2023/08/25 01:53:55;;;;;;;7.68;3.80;;;;;;;29.41;31.87;98189.47;5095775;28;20024;-45
2023/08/25 01:56:21;;;;;;;6.30;3.75;;;;;;;29.43;32.22;98184.50;5095892;28;20039;-45
2023/08/25 01:58:46;;;;;;;9.05;3.80;;;;;;;29.47;32.44;98180.00;5094513;28;20078;-45
2023/08/25 02:01:12;;;;;;;4.80;3.95;;;;;;;29.54;32.33;98186.75;5095565;28;20044;-46
2023/08/25 02:03:38;;;;;;;9.10;4.40;;;;;;;29.50;32.44;98200.19;5095794;28;20034;-45
2023/08/25 02:06:03;;;;;;;10.40;3.92;;;;;;;29.40;32.68;98189.78;5095682;28;20035;-45
2023/08/25 02:08:29;;;;;;;4.13;3.45;;;;;;;29.37;32.92;98193.19;5094386;28;20024;-45
2023/08/25 02:10:55;;;;;;;7.78;3.85;;;;;;;29.30;32.92;98188.34;5095543;28;20070;-45
2023/08/25 02:13:21;;;;;;;10.63;3.90;;;;;;;29.19;33.24;98177.16;5095508;28;20450;-45
2023/08/25 02:15:48;;;;;;;10.52;3.92;;;;;;;29.14;33.51;98181.97;5095741;28;20150;-45
2023/08/25 02:18:14;;;;;;;12.68;4.05;;;;;;;29.14;33.36;98179.28;5094120;28;20571;-45
2023/08/25 02:20:40;;;;;;;5.20;3.55;;;;;;;29.30;33.63;98171.31;5095335;28;20032;-45
2023/08/25 02:23:07;;;;;;;20.45;4.82;;;;;;;29.28;33.49;98177.06;5095336;28;20024;-45
2023/08/25 02:25:33;;;;;;;8.95;4.07;;;;;;;29.26;33.76;98168.50;5095506;28;20093;-46
2023/08/25 02:27:58;;;;;;;6.30;3.63;;;;;;;29.24;33.77;98176.16;5076978;28;20517;-45
2023/08/25 02:30:24;;;;;;;12.95;3.97;;;;;;;29.07;34.30;98166.31;5093909;28;20121;-45
2023/08/25 02:32:49;;;;;;;9.07;3.58;;;;;;;28.94;34.63;98170.13;5095037;28;20024;-45
2023/08/25 02:35:15;;;;;;;7.90;3.40;;;;;;;28.92;34.91;98158.88;5093752;28;20115;-45
2023/08/25 02:38:02;;;;;;;13.00;4.50;;;;;;;28.87;35.03;98160.63;5095071;28;20158;-45
2023/08/25 02:40:28;;;;;;;5.55;3.75;;;;;;;28.85;34.64;98154.00;5076767;28;20020;-45
2023/08/25 02:42:55;;;;;;;6.50;3.90;;;;;;;28.85;35.05;98151.28;5093620;28;20024;-45
2023/08/25 02:45:24;;;;;;;8.68;4.38;;;;;;;28.78;35.39;98157.25;5095169;28;20020;-45
2023/08/25 02:47:50;;;;;;;6.55;4.15;;;;;;;28.70;35.51;98147.31;5093539;28;20119;-47
2023/08/25 02:50:16;;;;;;;10.45;3.95;;;;;;;28.61;35.58;98147.38;5094864;28;20035;-47
2023/08/25 02:52:42;;;;;;;10.05;3.80;;;;;;;28.59;35.90;98141.53;5094647;28;20173;-46
2023/08/25 02:55:08;;;;;;;10.73;3.80;;;;;;;28.67;35.57;98139.88;5093458;28;20032;-47
2023/08/25 02:57:33;;;;;;;9.75;4.18;;;;;;;28.62;36.18;98137.41;5093391;28;20114;-46
2023/08/25 02:59:59;;;;;;;8.15;4.60;;;;;;;28.46;36.28;98143.38;5094572;28;20099;-47
2023/08/25 03:02:25;;;;;;;5.63;4.38;;;;;;;28.42;36.49;98131.69;5094317;28;20386;-47
2023/08/25 03:04:50;;;;;;;9.23;3.78;;;;;;;28.34;36.85;98137.16;5094505;28;20449;-47
2023/08/25 03:07:16;;;;;;;8.00;3.58;;;;;;;28.31;36.67;98143.22;5093172;28;20511;-47
2023/08/25 03:09:42;;;;;;;7.65;4.25;;;;;;;28.20;37.21;98153.63;5094469;28;20020;-47
2023/08/25 03:12:08;;;;;;;8.23;3.83;;;;;;;28.27;36.67;98153.88;5094363;28;20069;-47
2023/08/25 03:14:33;;;;;;;6.53;3.33;;;;;;;28.24;36.74;98139.13;5094309;28;20057;-47
2023/08/25 03:16:59;;;;;;;9.93;4.05;;;;;;;28.15;37.24;98149.22;5092997;28;20043;-47
2023/08/25 03:19:25;;;;;;;6.85;5.22;;;;;;;28.19;37.68;98147.44;5094286;28;20056;-47
2023/08/25 03:21:53;;;;;;;4.57;3.97;;;;;;;28.15;37.37;98151.13;5094231;28;20390;-46
2023/08/25 03:24:19;;;;;;;9.00;3.75;;;;;;;28.05;37.52;98144.19;5092862;28;20085;-47
2023/08/25 03:26:45;;;;;;;10.55;3.58;;;;;;;28.00;37.80;98153.28;5094043;28;20024;-45
2023/08/25 03:29:10;;;;;;;8.45;3.90;;;;;;;27.97;38.04;98151.25;5094086;28;20055;-45
2023/08/25 03:31:36;;;;;;;5.93;3.95;;;;;;;28.00;38.05;98155.19;5092732;28;20077;-45
2023/08/25 03:34:02;;;;;;;6.30;3.70;;;;;;;27.90;37.87;98150.97;5093909;28;20428;-45
2023/08/25 03:36:30;;;;;;;10.60;4.07;;;;;;;27.86;38.19;98158.13;5093905;28;20052;-45
2023/08/25 03:38:55;;;;;;;9.60;3.97;;;;;;;27.81;37.99;98147.50;5093885;28;20059;-45
2023/08/25 03:41:21;;;;;;;9.07;4.38;;;;;;;27.72;38.56;98146.78;5092511;28;20051;-45
2023/08/25 03:43:47;;;;;;;7.80;4.10;;;;;;;27.69;38.42;98151.72;5092395;28;20024;-45
2023/08/25 03:46:13;;;;;;;10.38;3.50;;;;;;;27.69;38.20;98148.25;5093743;28;20493;-45
2023/08/25 03:48:38;;;;;;;6.55;3.70;;;;;;;27.65;38.64;98145.41;5092408;28;20024;-45
2023/08/25 03:51:04;;;;;;;9.25;4.00;;;;;;;27.69;38.58;98145.53;5093638;28;20824;-45
2023/08/25 03:53:30;;;;;;;8.13;4.00;;;;;;;27.66;38.22;98138.88;5092215;28;20028;-45
2023/08/25 03:55:55;;;;;;;8.15;3.63;;;;;;;27.73;38.26;98146.47;5092194;28;20024;-45
2023/08/25 03:58:22;;;;;;;7.15;3.42;;;;;;;27.81;38.26;98150.19;5092209;28;20024;-45
2023/08/25 04:00:55;;;;;;;7.63;3.80;;;;;;;27.81;37.89;98142.13;5093180;28;20065;-46
2023/08/25 04:03:21;;;;;;;5.70;3.85;;;;;;;27.79;37.88;98147.03;5093495;28;20027;-46
2023/08/25 04:05:47;;;;;;;7.13;3.63;;;;;;;27.75;37.93;98148.81;5091458;28;20485;-46
2023/08/25 04:08:13;;;;;;;12.63;3.78;;;;;;;27.73;38.38;98153.75;5093303;28;20031;-46
2023/08/25 04:10:41;;;;;;;9.68;4.32;;;;;;;27.76;38.08;98153.88;5093258;28;20051;-46
2023/08/25 04:13:07;;;;;;;8.70;4.30;;;;;;;27.89;37.81;98171.00;5093190;28;20505;-46
2023/08/25 04:15:33;;;;;;;8.63;4.03;;;;;;;27.87;38.03;98179.41;5091802;28;20024;-46
2023/08/25 04:17:59;;;;;;;9.02;4.07;;;;;;;27.84;38.22;98181.94;5091781;28;20028;-46
2023/08/25 04:20:25;;;;;;;6.63;3.70;;;;;;;27.84;37.69;98190.81;5093028;28;20020;-46
2023/08/25 04:22:50;;;;;;;5.70;3.80;;;;;;;27.85;38.27;98189.69;5091709;28;20540;-46
2023/08/25 04:25:16;;;;;;;8.15;3.67;;;;;;;27.91;37.91;98194.91;5091664;28;20420;-46
2023/08/25 04:27:42;;;;;;;11.88;3.72;;;;;;;28.04;38.09;98199.28;5092873;28;20028;-46
2023/08/25 04:30:08;;;;;;;15.60;4.90;;;;;;;28.14;37.82;98214.31;5092872;28;20020;-46
2023/08/25 04:32:34;;;;;;;9.77;3.95;;;;;;;28.23;37.85;98218.53;5091407;28;20072;-46
2023/08/25 04:34:59;;;;;;;4.88;3.47;;;;;;;28.13;37.52;98232.41;5092824;28;20023;-46
2023/08/25 04:37:25;;;;;;;8.57;3.92;;;;;;;28.00;37.94;98249.63;5091506;28;20020;-46
2023/08/25 04:39:52;;;;;;;26.25;5.68;;;;;;;28.05;38.35;98249.41;5091389;28;20024;-46
2023/08/25 04:42:18;;;;;;;10.80;3.92;;;;;;;28.35;38.07;98252.88;5092594;28;20031;-46
2023/08/25 04:44:44;;;;;;;16.73;4.63;;;;;;;28.90;37.45;98255.66;5091317;28;20028;-46
2023/08/25 04:47:10;;;;;;;11.95;4.07;;;;;;;29.26;35.98;98260.41;5092775;28;20028;-46
2023/08/25 04:49:35;;;;;;;10.80;5.10;;;;;;;29.39;36.00;98263.91;5091251;28;20032;-46
2023/08/25 04:52:01;;;;;;;9.18;3.92;;;;;;;29.22;36.08;98254.88;5092492;28;20552;-47
2023/08/25 04:54:27;;;;;;;12.27;4.18;;;;;;;29.02;36.65;98258.41;5092388;28;20071;-46
2023/08/25 04:56:55;;;;;;;26.65;10.23;;;;;;;28.96;36.98;98271.31;5092408;28;20028;-46
2023/08/25 04:59:21;;;;;;;8.30;3.58;;;;;;;29.07;36.62;98263.56;5092363;28;20028;-47
2023/08/25 05:01:47;;;;;;;10.15;3.97;;;;;;;29.17;36.48;98255.06;5091936;28;20089;-46
2023/08/25 05:04:12;;;;;;;11.05;4.07;;;;;;;29.17;36.67;98260.47;5092320;28;20028;-46
2023/08/25 05:06:38;;;;;;;10.05;4.63;;;;;;;29.03;36.54;98255.34;5090924;28;20023;-47
2023/08/25 05:09:03;;;;;;;23.35;5.95;;;;;;;28.93;37.41;98261.16;5092276;28;20050;-47
2023/08/25 05:11:29;;;;;;;11.38;4.40;;;;;;;29.08;37.14;98262.47;5092151;28;20031;-46
2023/08/25 05:13:55;;;;;;;12.13;4.22;;;;;;;29.21;37.03;98276.81;5092093;28;20056;-46
2023/08/25 05:16:20;;;;;;;20.75;4.88;;;;;;;29.56;36.67;98277.25;5090288;28;20049;-46
2023/08/25 05:18:46;;;;;;;11.77;3.88;;;;;;;30.10;35.55;98272.75;5091837;28;20077;-47
2023/08/25 05:21:14;;;;;;;7.53;3.50;;;;;;;30.48;34.97;98287.84;5092100;28;20107;-46
2023/08/25 05:23:42;;;;;;;10.05;3.53;;;;;;;31.01;34.35;98302.19;5091992;28;20579;-47
2023/08/25 05:26:08;;;;;;;22.60;4.70;;;;;;;31.64;33.15;98317.78;5091993;28;20102;-46
2023/08/25 05:28:34;;;;;;;26.48;5.78;;;;;;;31.89;32.54;98339.31;5092034;28;20108;-46
2023/08/25 05:30:59;;;;;;;21.92;4.18;;;;;;;31.83;32.65;98338.78;5091966;28;20085;-46
2023/08/25 05:33:25;;;;;;;17.30;4.53;;;;;;;31.63;32.74;98355.00;5091872;28;20016;-46
2023/08/25 05:35:51;;;;;;;13.57;4.22;;;;;;;31.93;32.14;98349.13;5091848;28;20024;-46
2023/08/25 05:38:16;;;;;;;10.13;3.30;;;;;;;32.39;31.56;98360.31;5091900;28;20020;-46
2023/08/25 05:40:42;;;;;;;8.10;3.30;;;;;;;32.72;30.04;98345.53;5091805;28;20020;-46
2023/08/25 05:43:08;;;;;;;17.17;4.20;;;;;;;32.40;30.62;98347.53;5091858;28;20055;-46
2023/08/25 05:45:33;;;;;;;21.33;4.80;;;;;;;31.93;31.10;98364.63;5091778;28;20040;-46
2023/08/25 05:47:59;;;;;;;15.48;3.47;;;;;;;31.79;31.41;98371.28;5091667;28;20062;-46
2023/08/25 05:50:25;;;;;;;14.45;4.30;;;;;;;31.79;32.34;98375.91;5091706;28;20028;-46
2023/08/25 05:52:53;;;;;;;17.60;5.30;;;;;;;32.06;31.59;98381.66;5090302;28;20028;-47
2023/08/25 05:55:19;;;;;;;14.00;4.75;;;;;;;32.09;31.50;98386.38;5090454;28;20046;-47
2023/08/25 05:57:44;;;;;;;24.75;4.90;;;;;;;32.13;31.65;98379.09;5090398;28;20129;-47
2023/08/25 06:00:11;;;;;;;26.85;5.72;;;;;;;32.10;31.45;98382.53;5091640;28;20035;-47
2023/08/25 06:02:36;;;;;;;17.02;4.45;;;;;;;32.12;31.20;98378.31;5091196;28;20173;-46
2023/08/25 06:05:03;;;;;;;36.80;6.60;;;;;;;32.30;31.25;98380.66;5090346;28;20142;-47
2023/08/25 06:07:28;;;;;;;30.27;5.07;;;;;;;32.22;31.38;98377.78;5091720;28;20059;-46
2023/08/25 06:09:54;;;;;;;21.05;4.15;;;;;;;32.17;31.67;98385.41;5091580;28;20051;-47
2023/08/25 06:12:20;;;;;;;13.35;3.83;;;;;;;32.20;31.00;98384.72;5090167;28;20032;-47
2023/08/25 06:14:46;;;;;;;12.18;4.50;;;;;;;32.30;30.87;98377.94;5091743;28;20028;-45
2023/08/25 06:17:12;;;;;;;14.90;4.53;;;;;;;32.25;31.25;98376.28;5091492;28;20024;-45
2023/08/25 06:19:38;;;;;;;9.80;4.57;;;;;;;32.34;30.82;98385.03;5091512;28;20013;-45
2023/08/25 06:22:03;;;;;;;11.23;3.88;;;;;;;32.73;30.92;98373.50;5091690;28;20461;-45
2023/08/25 06:24:29;;;;;;;9.27;3.70;;;;;;;33.03;30.05;98368.31;5091708;28;20055;-45
2023/08/25 06:26:55;;;;;;;13.18;4.30;;;;;;;32.96;29.84;98370.88;5090185;28;20024;-45
2023/08/25 06:29:21;;;;;;;10.60;3.75;;;;;;;32.67;30.77;98369.50;5094052;28;20404;-45
2023/08/25 06:31:46;;;;;;;9.40;3.15;;;;;;;32.34;30.83;98393.19;5095193;28;20020;-45
2023/08/25 06:34:12;;;;;;;16.33;4.75;;;;;;;32.07;31.85;98397.56;5095109;28;20016;-45
2023/08/25 06:36:38;;;;;;;6.18;3.40;;;;;;;32.45;30.89;98391.50;5093771;28;20115;-45
2023/08/25 06:39:03;;;;;;;7.65;3.60;;;;;;;33.49;29.68;98398.38;5093727;28;20024;-45
2023/08/25 06:41:30;;;;;;;8.95;4.10;;;;;;;34.82;28.34;98395.13;5095054;28;20058;-45
2023/08/25 06:43:59;;;;;;;9.57;3.22;;;;;;;35.25;27.29;98397.63;5094926;28;20024;-45
2023/08/25 06:46:24;;;;;;;8.93;3.15;;;;;;;35.65;26.74;98399.59;5094878;28;20494;-46
2023/08/25 06:48:50;;;;;;;8.25;3.70;;;;;;;35.52;27.00;98398.31;5093579;28;20028;-46
2023/08/25 06:51:16;;;;;;;15.88;4.60;;;;;;;35.34;27.37;98406.31;5094936;28;20024;-45
2023/08/25 06:53:42;;;;;;;21.48;4.35;;;;;;;34.97;27.92;98405.06;5094745;28;20023;-46
2023/08/25 06:56:07;;;;;;;8.70;3.35;;;;;;;34.47;28.36;98406.28;5076647;28;20016;-45
2023/08/25 06:58:33;;;;;;;6.70;3.13;;;;;;;33.88;29.11;98409.19;5094646;28;20110;-45
2023/08/25 07:00:59;;;;;;;11.20;3.30;;;;;;;33.53;29.61;98403.88;5094410;28;20023;-46
2023/08/25 07:03:25;;;;;;;11.13;3.28;;;;;;;33.22;30.52;98411.84;5094708;28;20036;-46
2023/08/25 07:05:57;;;;;;;8.30;3.83;;;;;;;32.68;30.96;98419.97;5093204;28;20476;-45
2023/08/25 07:08:23;;;;;;;20.00;4.00;;;;;;;32.24;31.65;98423.59;5094841;28;20402;-45
2023/08/25 07:10:49;;;;;;;7.78;3.78;;;;;;;32.01;32.76;98437.75;5094470;28;20040;-45
2023/08/25 07:13:15;;;;;;;20.40;5.00;;;;;;;31.85;33.75;98442.34;5093047;28;20121;-45
2023/08/25 07:15:42;;;;;;;25.55;5.38;;;;;;;31.81;33.28;98449.63;5093023;28;20024;-45
2023/08/25 07:18:09;;;;;;;36.88;6.13;;;;;;;31.61;34.02;98464.97;5093173;28;20040;-45
2023/08/25 07:20:35;;;;;;;31.98;5.43;;;;;;;31.42;38.18;98479.16;5094471;28;20098;-45
2023/08/25 07:23:00;;;;;;;22.90;5.07;;;;;;;31.10;40.81;98481.72;5092916;28;20489;-45
2023/08/25 07:25:26;;;;;;;23.92;5.32;;;;;;;30.82;41.55;98492.44;5092901;28;20028;-45
2023/08/25 07:27:52;;;;;;;21.13;5.20;;;;;;;30.69;42.29;98499.78;5092837;28;20070;-45
2023/08/25 07:30:18;;;;;;;13.18;4.13;;;;;;;30.64;42.17;98521.66;5092783;28;20016;-45
2023/08/25 07:32:43;;;;;;;16.02;4.78;;;;;;;30.66;42.76;98535.66;5093924;28;20517;-45
2023/08/25 07:35:09;;;;;;;23.50;5.65;;;;;;;30.73;44.34;98545.97;5092651;28;20444;-45
2023/08/25 07:37:37;;;;;;;12.18;5.35;;;;;;;30.83;44.47;98551.72;5092637;28;20035;-45
2023/08/25 07:40:05;;;;;;;24.92;8.13;;;;;;;30.85;43.71;98570.34;5091813;28;20112;-45
2023/08/25 07:42:31;;;;;;;12.85;5.05;;;;;;;30.60;43.19;98575.72;5093694;28;20511;-45
2023/08/25 07:44:57;;;;;;;17.10;4.70;;;;;;;30.04;43.09;98584.25;5093781;28;20106;-45
2023/08/25 07:47:22;;;;;;;15.48;3.72;;;;;;;29.69;43.14;98589.09;5093717;28;20103;-44
2023/08/25 07:49:48;;;;;;;7.45;4.07;;;;;;;29.31;43.30;98589.19;5093614;28;20367;-45
2023/08/25 07:52:14;;;;;;;29.63;5.85;;;;;;;29.17;42.98;98602.94;5092312;28;20028;-44
2023/08/25 07:54:40;;;;;;;17.92;5.05;;;;;;;29.38;43.23;98624.59;5093588;28;20073;-45
2023/08/25 07:57:06;;;;;;;24.38;5.15;;;;;;;29.36;43.80;98616.84;5092228;28;20050;-45
2023/08/25 07:59:32;;;;;;;22.33;5.50;;;;;;;29.52;44.05;98616.25;5092148;28;20394;-45
2023/08/25 08:01:57;;;;;;;12.93;5.35;;;;;;;29.72;44.89;98610.13;5092017;28;20040;-45
2023/08/25 08:04:23;;;;;;;13.18;5.57;;;;;;;29.80;46.47;98627.38;5093422;28;20035;-45
2023/08/25 08:06:49;;;;;;;20.80;5.20;;;;;;;29.70;46.64;98638.56;5091988;28;20031;-45
2023/08/25 08:09:15;;;;;;;17.83;4.90;;;;;;;29.38;45.48;98659.75;5093400;28;20031;-45
2023/08/25 08:11:40;;;;;;;16.17;4.03;;;;;;;29.32;45.65;98680.78;5093237;28;20501;-45
2023/08/25 08:14:06;;;;;;;15.70;5.15;;;;;;;29.49;46.54;98693.41;5093173;28;20111;-45
2023/08/25 08:16:32;;;;;;;11.70;5.13;;;;;;;29.29;47.69;98681.41;5091875;28;20036;-45
2023/08/25 08:18:58;;;;;;;15.45;4.82;;;;;;;28.98;50.47;98700.59;5093127;28;20020;-45
2023/08/25 08:21:24;;;;;;;13.30;4.72;;;;;;;28.73;51.16;98718.41;5093147;28;20020;-45
2023/08/25 08:23:49;;;;;;;32.50;7.90;;;;;;;28.56;51.39;98717.34;5091739;28;20512;-45
2023/08/25 08:26:15;;;;;;;31.58;6.55;;;;;;;28.91;52.02;98721.88;5091721;28;20401;-45
2023/08/25 08:28:41;;;;;;;32.45;6.20;;;;;;;29.35;49.83;98722.59;5092978;28;20024;-45
2023/08/25 08:31:06;;;;;;;11.85;4.55;;;;;;;30.07;47.69;98728.94;5092967;28;20542;-45
2023/08/25 08:33:32;;;;;;;14.93;4.85;;;;;;;30.98;44.41;98722.97;5091479;28;20028;-45
2023/08/25 08:35:58;;;;;;;13.50;4.50;;;;;;;31.24;42.63;98718.03;5091517;28;20028;-45
2023/08/25 08:38:24;;;;;;;18.83;5.70;;;;;;;31.17;42.00;98723.25;5092797;28;20157;-45
2023/08/25 08:40:50;;;;;;;21.20;7.30;;;;;;;31.20;41.18;98740.75;5092974;28;20025;-45
2023/08/25 08:43:18;;;;;;;6.90;4.15;;;;;;;31.04;41.08;98754.16;5092945;28;20040;-45
2023/08/25 08:45:45;;;;;;;9.75;4.03;;;;;;;30.75;40.99;98758.53;5092638;28;20024;-45
2023/08/25 08:48:13;;;;;;;10.60;4.72;;;;;;;30.59;41.59;98744.03;5091305;28;20024;-45
2023/08/25 08:50:41;;;;;;;48.00;7.00;;;;;;;30.90;41.80;98742.81;5091157;28;20081;-45
2023/08/25 08:53:08;;;;;;;12.40;3.80;;;;;;;31.22;40.60;98724.94;5091211;28;20024;-45
2023/08/25 08:55:35;;;;;;;12.05;3.72;;;;;;;31.34;39.98;98719.50;5091114;28;20508;-45
2023/08/25 08:58:00;;;;;;;30.02;5.18;;;;;;;31.28;39.92;98699.19;5092471;28;20035;-45
2023/08/25 09:00:27;;;;;;;15.13;4.18;;;;;;;31.59;39.19;98687.00;5092355;28;20020;-45
2023/08/25 09:02:54;;;;;;;18.30;4.35;;;;;;;32.71;37.36;98672.81;5092116;28;20474;-45
2023/08/25 09:05:29;;;;;;;10.68;3.50;;;;;;;34.46;33.91;98661.66;5092338;28;20031;-45
2023/08/25 09:08:07;;;;;;;8.90;3.97;;;;;;;36.28;31.60;98657.50;5092380;28;20081;-45
2023/08/25 09:10:32;;;;;;;7.38;3.45;;;;;;;37.76;29.15;98656.81;5091079;28;20043;-46
2023/08/25 09:12:58;;;;;;;7.50;3.38;;;;;;;38.79;27.00;98647.38;5092149;28;20020;-46
2023/08/25 09:15:31;;;;;;;10.05;3.03;;;;;;;38.86;26.84;98636.41;5092174;28;20024;-46
2023/08/25 09:18:08;;;;;;;18.25;3.95;;;;;;;39.74;26.01;98628.47;5092408;28;20028;-46
2023/08/25 09:20:40;;;;;;;6.03;3.10;;;;;;;40.57;24.64;98616.28;5092069;28;20036;-48
2023/08/25 09:23:08;;;;;;;13.32;4.22;;;;;;;39.60;25.53;98600.25;5092297;28;20448;-48
2023/08/25 09:25:33;;;;;;;8.90;3.45;;;;;;;40.00;24.53;98587.94;5092021;28;20493;-48
2023/08/25 09:28:03;;;;;;;12.75;2.95;;;;;;;40.25;24.09;98568.53;5090800;28;20020;-48
2023/08/25 09:30:40;;;;;;;26.05;4.53;;;;;;;41.15;23.68;98558.78;5091984;28;20024;-48
2023/08/25 09:33:08;;;;;;;9.60;2.53;;;;;;;41.48;22.34;98563.56;5092234;28;20032;-48
2023/08/25 09:35:34;;;;;;;5.93;2.83;;;;;;;40.97;22.88;98548.75;5091856;28;20039;-48
2023/08/25 09:38:00;;;;;;;4.65;2.33;;;;;;;40.61;22.92;98535.28;5090588;28;20524;-48
2023/08/25 09:40:29;;;;;;;6.88;2.78;;;;;;;40.16;23.60;98507.72;5092122;28;20158;-48
2023/08/25 09:43:03;;;;;;;8.95;3.35;;;;;;;39.88;24.59;98495.72;5092097;28;20435;-48
2023/08/25 09:45:33;;;;;;;11.90;3.30;;;;;;;41.31;22.66;98490.16;5091803;28;20020;-49
2023/08/25 09:48:16;;;;;;;27.58;4.57;;;;;;;42.46;21.88;98507.88;5090462;28;20020;-49
2023/08/25 09:50:43;;;;;;;10.05;3.22;;;;;;;42.72;20.62;98502.69;5092051;28;20046;-48
2023/08/25 09:53:12;;;;;;;8.73;2.60;;;;;;;42.45;20.94;98496.06;5091652;28;20048;-48
2023/08/25 09:55:39;;;;;;;14.55;3.25;;;;;;;42.91;20.45;98462.56;5090432;28;20032;-48
2023/08/25 09:58:07;;;;;;;15.38;3.33;;;;;;;43.17;19.65;98438.75;5090407;28;20509;-48
2023/08/25 10:00:35;;;;;;;21.55;3.47;;;;;;;43.47;19.14;98440.50;5090317;28;20031;-48
2023/08/25 10:03:03;;;;;;;25.10;4.65;;;;;;;43.09;19.04;98449.94;5091947;28;20059;-48
2023/08/25 10:05:32;;;;;;;20.17;3.28;;;;;;;42.45;19.64;98426.31;5095698;28;20390;-48
2023/08/25 10:07:59;;;;;;;20.35;3.33;;;;;;;42.35;19.93;98403.19;5095629;28;20020;-48
2023/08/25 10:10:27;;;;;;;36.08;4.50;;;;;;;42.72;19.86;98386.75;5094548;28;20032;-48
2023/08/25 10:12:57;;;;;;;7.63;3.05;;;;;;;42.83;18.70;98390.88;5094256;28;20389;-48
2023/08/25 10:15:25;;;;;;;27.13;4.57;;;;;;;41.75;20.26;98394.72;5095514;28;20024;-48
2023/08/25 10:17:53;;;;;;;15.77;4.28;;;;;;;41.56;20.47;98407.19;5095495;28;20081;-48
2023/08/25 10:20:22;;;;;;;22.10;4.70;;;;;;;40.22;22.15;98396.13;5095291;28;20028;-48
2023/08/25 10:22:50;;;;;;;15.70;4.32;;;;;;;38.74;22.74;98398.91;5095243;28;20028;-47
2023/08/25 10:25:18;;;;;;;8.77;4.15;;;;;;;36.71;25.81;98419.25;5095304;28;20016;-47
2023/08/25 10:27:45;;;;;;;7.20;3.47;;;;;;;35.86;26.99;98412.72;5094312;28;20050;-46
2023/08/25 10:30:12;;;;;;;14.02;3.88;;;;;;;35.32;27.99;98412.13;5093831;28;20103;-45
2023/08/25 10:33:11;;;;;;;6.97;3.85;;;;;;;34.32;28.86;98419.69;5093793;28;20111;-45
2023/08/25 10:35:44;;;;;;;7.70;4.57;;;;;;;33.68;31.15;98415.84;5094671;28;20036;-45
2023/08/25 10:38:33;;;;;;;12.43;4.50;;;;;;;33.52;29.67;98408.53;5093823;28;20758;-45
2023/08/25 10:41:11;;;;;;;10.77;4.28;;;;;;;32.67;31.77;98419.19;5095199;28;20107;-44
2023/08/25 10:43:40;;;;;;;11.55;4.10;;;;;;;32.68;31.73;98430.84;5094959;28;20028;-45
2023/08/25 10:46:07;;;;;;;5.80;2.58;;;;;;;32.86;32.32;98432.03;5095190;28;20512;-45
2023/08/25 10:48:34;;;;;;;8.40;3.63;;;;;;;32.61;32.98;98421.38;5093779;28;20024;-45
2023/08/25 10:51:19;;;;;;;13.93;3.75;;;;;;;32.19;33.60;98421.13;5094918;28;20057;-45
2023/08/25 10:53:52;;;;;;;6.10;4.13;;;;;;;32.93;33.25;98410.44;5094786;28;20028;-45
2023/08/25 10:56:17;;;;;;;11.57;4.43;;;;;;;33.62;31.61;98404.47;5093535;28;20111;-45
2023/08/25 10:59:13;;;;;;;11.00;4.45;;;;;;;33.64;31.11;98388.56;5094754;28;20454;-45
2023/08/25 11:01:42;;;;;;;12.02;4.35;;;;;;;32.60;33.33;98375.56;5093945;28;20050;-44
2023/08/25 11:04:19;;;;;;;7.25;4.55;;;;;;;31.87;33.99;98369.50;5093320;28;20032;-45
2023/08/25 11:06:50;;;;;;;11.63;4.53;;;;;;;31.73;34.98;98386.22;5093556;28;20032;-45
2023/08/25 11:09:18;;;;;;;11.95;3.58;;;;;;;31.97;34.53;98382.56;5093401;28;20036;-45
2023/08/25 11:11:46;;;;;;;8.95;4.13;;;;;;;31.81;34.07;98379.06;5093050;28;20432;-45
2023/08/25 11:14:15;;;;;;;7.22;3.90;;;;;;;31.70;34.70;98369.88;5093691;28;20095;-45
2023/08/25 11:16:41;;;;;;;8.75;3.75;;;;;;;31.98;33.83;98359.72;5092444;28;20028;-45
2023/08/25 11:19:10;;;;;;;9.57;3.95;;;;;;;32.64;32.66;98335.69;5093302;28;20060;-45
2023/08/25 11:21:37;;;;;;;6.72;4.38;;;;;;;33.76;30.93;98314.09;5076366;28;20020;-45
2023/08/25 11:24:03;;;;;;;6.93;3.90;;;;;;;33.83;30.33;98320.47;5094287;28;20067;-45
2023/08/25 11:26:30;;;;;;;7.55;4.18;;;;;;;33.57;31.08;98315.72;5094165;28;20520;-45
2023/08/25 11:28:56;;;;;;;7.93;4.38;;;;;;;33.84;30.82;98310.34;5094129;28;20016;-45
2023/08/25 11:31:23;;;;;;;7.25;3.97;;;;;;;34.11;29.95;98294.00;5092720;28;20032;-45